createdAt,value
2023-05-09T00:00:48.971Z,88.77
2023-05-09T00:03:16.868Z,88.79
2023-05-09T00:05:46.457Z,88.74
2023-05-09T00:08:14.327Z,88.80
2023-05-09T00:10:42.166Z,88.91
2023-05-09T00:13:10.091Z,88.93
2023-05-09T00:15:37.914Z,88.79
2023-05-09T00:18:05.968Z,88.84
2023-05-09T00:20:34.175Z,88.81
2023-05-09T00:23:02.041Z,88.81
2023-05-09T00:25:29.837Z,88.70
2023-05-09T00:27:57.707Z,88.84
2023-05-09T00:30:25.716Z,88.87
2023-05-09T00:32:53.910Z,88.92
2023-05-09T00:35:21.826Z,88.96
2023-05-09T00:37:49.662Z,88.94
2023-05-09T00:40:17.499Z,88.77
2023-05-09T00:42:45.641Z,88.68
2023-05-09T00:45:13.773Z,88.69
2023-05-09T00:47:41.829Z,88.76
2023-05-09T00:50:10.129Z,88.66
2023-05-09T00:52:39.055Z,89.00
2023-05-09T00:55:08.517Z,89.04
2023-05-09T00:57:37.079Z,88.75
2023-05-09T01:00:06.227Z,88.70
2023-05-09T01:02:34.096Z,88.70
2023-05-09T01:05:02.211Z,88.90
2023-05-09T01:07:45.020Z,88.89
2023-05-09T01:10:43.500Z,88.85
2023-05-09T01:13:32.731Z,88.82
2023-05-09T01:16:35.189Z,88.73
2023-05-09T01:19:44.023Z,88.67
2023-05-09T01:22:16.482Z,88.65
2023-05-09T01:25:33.949Z,88.67
2023-05-09T01:28:26.856Z,88.72
2023-05-09T01:30:56.673Z,88.76
2023-05-09T01:33:27.171Z,88.88
2023-05-09T01:36:05.110Z,88.96
2023-05-09T01:38:34.192Z,88.99
2023-05-09T01:41:05.330Z,88.96
2023-05-09T01:43:34.593Z,88.98
2023-05-09T01:46:05.622Z,88.87
2023-05-09T01:48:37.697Z,88.65
2023-05-09T01:51:07.805Z,88.46
2023-05-09T01:53:36.438Z,88.38
2023-05-09T01:56:09.969Z,88.48
2023-05-09T01:58:39.551Z,88.42
2023-05-09T02:01:08.158Z,88.34
2023-05-09T02:03:39.146Z,88.16
2023-05-09T02:06:08.365Z,88.11
2023-05-09T02:08:36.855Z,88.16
2023-05-09T02:11:04.847Z,88.27
2023-05-09T02:13:34.681Z,88.33
2023-05-09T02:16:02.904Z,88.25
2023-05-09T02:18:32.687Z,88.23
2023-05-09T02:21:03.192Z,88.29
2023-05-09T02:23:31.803Z,88.32
2023-05-09T02:26:00.082Z,88.51
2023-05-09T02:28:29.540Z,88.36
2023-05-09T02:31:02.053Z,88.33
2023-05-09T02:33:31.444Z,88.44
2023-05-09T02:35:59.498Z,88.51
2023-05-09T02:38:27.519Z,88.52
2023-05-09T02:40:56.379Z,88.57
2023-05-09T02:43:24.127Z,88.67
2023-05-09T02:45:52.138Z,88.70
2023-05-09T02:48:19.943Z,88.71
2023-05-09T02:50:47.740Z,88.70
2023-05-09T02:53:15.583Z,88.81
2023-05-09T02:55:43.524Z,88.67
2023-05-09T02:58:14.526Z,88.76
2023-05-09T03:00:43.839Z,88.85
2023-05-09T03:03:12.890Z,88.91
2023-05-09T03:05:40.926Z,88.82
2023-05-09T03:08:09.014Z,88.80
2023-05-09T03:10:36.765Z,88.83
2023-05-09T03:13:05.001Z,88.77
2023-05-09T03:15:33.522Z,88.83
2023-05-09T03:18:01.571Z,88.89
2023-05-09T03:20:30.532Z,88.88
2023-05-09T03:22:58.655Z,88.88
2023-05-09T03:25:26.682Z,88.89
2023-05-09T03:27:54.534Z,88.86
2023-05-09T03:30:24.521Z,88.97
2023-05-09T03:32:52.684Z,89.05
2023-05-09T03:35:20.795Z,89.15
2023-05-09T03:37:48.578Z,88.99
2023-05-09T03:40:16.542Z,89.01
2023-05-09T03:42:49.646Z,89.09
2023-05-09T03:45:17.540Z,89.09
2023-05-09T03:47:46.563Z,89.15
2023-05-09T03:50:14.657Z,89.19
2023-05-09T03:52:43.165Z,89.05
2023-05-09T03:55:12.219Z,89.01
2023-05-09T03:57:40.171Z,89.01
2023-05-09T04:00:10.274Z,89.05
2023-05-09T04:02:50.023Z,89.23
2023-05-09T04:05:24.348Z,89.21
2023-05-09T04:07:53.096Z,89.13
2023-05-09T04:10:21.296Z,89.20
2023-05-09T04:12:49.269Z,89.18
2023-05-09T04:15:17.908Z,89.19
2023-05-09T04:17:45.952Z,89.20
2023-05-09T04:20:13.963Z,89.23
2023-05-09T04:22:45.371Z,89.22
2023-05-09T04:25:16.104Z,89.19
2023-05-09T04:27:44.469Z,89.25
2023-05-09T04:30:13.101Z,89.18
2023-05-09T04:32:45.860Z,89.21
2023-05-09T04:35:14.270Z,89.23
2023-05-09T04:37:44.781Z,89.21
2023-05-09T04:40:13.521Z,89.19
2023-05-09T04:42:45.946Z,89.22
2023-05-09T04:45:14.414Z,89.21
2023-05-09T04:47:42.506Z,89.23
2023-05-09T04:50:11.188Z,89.29
2023-05-09T04:52:39.037Z,89.17
2023-05-09T04:55:08.094Z,89.08
2023-05-09T04:57:39.514Z,89.08
2023-05-09T05:00:08.223Z,88.97
2023-05-09T05:02:37.702Z,89.02
2023-05-09T05:05:12.162Z,88.89
2023-05-09T05:07:49.708Z,88.86
2023-05-09T05:10:20.997Z,88.80
2023-05-09T05:12:52.820Z,88.71
2023-05-09T05:15:20.755Z,88.78
2023-05-09T05:17:49.426Z,88.69
2023-05-09T05:20:18.695Z,88.66
2023-05-09T05:22:46.951Z,88.70
2023-05-09T05:25:15.380Z,88.69
2023-05-09T05:27:43.759Z,88.62
2023-05-09T05:30:15.992Z,88.51
2023-05-09T05:32:44.354Z,88.45
2023-05-09T05:35:13.413Z,88.42
2023-05-09T05:37:42.592Z,88.38
2023-05-09T05:40:11.345Z,88.29
2023-05-09T05:42:41.009Z,88.30
2023-05-09T05:45:09.829Z,88.18
2023-05-09T05:47:39.740Z,88.11
2023-05-09T05:50:11.652Z,88.04
2023-05-09T05:52:41.510Z,88.02
2023-05-09T05:55:11.132Z,87.87
2023-05-09T05:57:39.284Z,87.58
2023-05-09T06:00:11.351Z,87.69
2023-05-09T06:02:45.414Z,87.61
2023-05-09T06:05:18.231Z,87.33
2023-05-09T06:07:46.135Z,87.18
2023-05-09T06:10:15.930Z,86.73
2023-05-09T06:12:44.861Z,86.84
2023-05-09T06:15:13.474Z,86.87
2023-05-09T06:17:44.421Z,86.64
2023-05-09T06:20:12.429Z,86.75
2023-05-09T06:22:40.493Z,86.71
2023-05-09T06:25:10.621Z,86.97
2023-05-09T06:27:38.820Z,86.66
2023-05-09T06:30:23.744Z,86.37
2023-05-09T06:32:54.700Z,86.22
2023-05-09T06:35:22.833Z,86.53
2023-05-09T06:37:50.682Z,86.31
2023-05-09T06:40:18.662Z,86.37
2023-05-09T06:42:46.589Z,86.39
2023-05-09T06:45:15.899Z,86.18
2023-05-09T06:47:44.073Z,86.17
2023-05-09T06:50:11.915Z,86.47
2023-05-09T06:52:39.971Z,86.43
2023-05-09T06:55:09.273Z,86.55
2023-05-09T06:57:38.721Z,85.53
2023-05-09T07:00:09.525Z,85.28
2023-05-09T07:02:43.609Z,85.50
2023-05-09T07:05:12.103Z,85.29
2023-05-09T07:07:40.712Z,85.11
2023-05-09T07:10:11.986Z,84.80
2023-05-09T07:12:41.409Z,84.92
2023-05-09T07:15:10.169Z,85.08
2023-05-09T07:17:38.092Z,85.34
2023-05-09T07:20:08.800Z,85.32
2023-05-09T07:22:38.534Z,85.00
2023-05-09T07:25:09.994Z,84.42
2023-05-09T07:27:38.245Z,84.39
2023-05-09T07:30:09.121Z,84.28
2023-05-09T07:32:40.131Z,84.70
2023-05-09T07:35:09.289Z,84.57
2023-05-09T07:37:37.274Z,84.60
2023-05-09T07:40:06.174Z,83.72
2023-05-09T07:42:34.161Z,83.06
2023-05-09T07:45:04.144Z,82.59
2023-05-09T07:47:34.829Z,82.40
2023-05-09T07:50:02.699Z,83.10
2023-05-09T07:52:30.585Z,83.08
2023-05-09T07:54:58.549Z,82.41
2023-05-09T07:57:26.686Z,81.98
2023-05-09T07:59:54.576Z,81.29
2023-05-09T08:02:22.418Z,81.58
2023-05-09T08:04:50.314Z,80.88
2023-05-09T08:07:18.111Z,80.08
2023-05-09T08:09:45.885Z,80.80
2023-05-09T08:12:13.687Z,80.58
2023-05-09T08:14:41.433Z,81.25
2023-05-09T08:17:09.680Z,81.61
2023-05-09T08:19:37.468Z,82.19
2023-05-09T08:22:05.602Z,82.38
2023-05-09T08:24:33.408Z,82.00
2023-05-09T08:27:01.455Z,82.52
2023-05-09T08:29:29.867Z,81.99
2023-05-09T08:31:57.814Z,81.86
2023-05-09T08:34:26.876Z,82.18
2023-05-09T08:36:54.619Z,82.31
2023-05-09T08:39:22.345Z,82.30
2023-05-09T08:41:51.197Z,82.32
2023-05-09T08:44:21.639Z,82.29
2023-05-09T08:46:52.754Z,82.64
2023-05-09T08:49:21.374Z,83.07
2023-05-09T08:51:49.912Z,82.73
2023-05-09T08:54:20.787Z,82.98
2023-05-09T08:56:51.488Z,82.93
2023-05-09T08:59:19.665Z,82.22
2023-05-09T09:01:47.951Z,82.34
2023-05-09T09:04:15.975Z,81.97
2023-05-09T09:06:44.360Z,81.27
2023-05-09T09:09:14.755Z,81.10
2023-05-09T09:11:43.575Z,80.56
2023-05-09T09:14:20.197Z,80.28
2023-05-09T09:16:50.667Z,79.67
2023-05-09T09:19:20.357Z,80.06
2023-05-09T09:21:49.802Z,79.99
2023-05-09T09:24:23.049Z,79.69
2023-05-09T09:26:52.177Z,79.32
2023-05-09T09:29:21.081Z,80.07
2023-05-09T09:31:55.198Z,79.93
2023-05-09T09:34:23.899Z,79.44
2023-05-09T09:36:51.875Z,78.89
2023-05-09T09:39:19.768Z,77.01
2023-05-09T09:41:48.726Z,77.47
2023-05-09T09:44:22.195Z,77.50
2023-05-09T09:46:55.666Z,77.19
2023-05-09T09:49:26.382Z,77.30
2023-05-09T09:51:58.833Z,77.65
2023-05-09T09:54:27.788Z,77.87
2023-05-09T09:56:56.546Z,77.37
2023-05-09T09:59:27.339Z,77.33
2023-05-09T10:02:07.422Z,78.07
2023-05-09T10:04:41.823Z,77.81
2023-05-09T10:07:13.675Z,77.80
2023-05-09T10:09:43.920Z,78.08
2023-05-09T10:12:12.213Z,78.16
2023-05-09T10:14:43.250Z,78.32
2023-05-09T10:17:15.240Z,77.77
2023-05-09T10:19:50.022Z,77.88
2023-05-09T10:22:19.689Z,78.65
2023-05-09T10:25:03.918Z,78.81
2023-05-09T10:27:35.869Z,77.98
2023-05-09T10:30:23.040Z,77.21
2023-05-09T10:33:07.740Z,76.99
2023-05-09T10:35:46.740Z,76.16
2023-05-09T10:38:14.747Z,76.17
2023-05-09T10:40:47.324Z,75.63
2023-05-09T10:43:15.736Z,75.47
2023-05-09T10:45:44.647Z,74.94
2023-05-09T10:48:13.839Z,74.99
2023-05-09T10:50:42.640Z,74.74
2023-05-09T10:53:14.067Z,74.42
2023-05-09T10:55:56.449Z,74.94
2023-05-09T10:58:33.678Z,74.81
2023-05-09T11:01:04.509Z,74.04
2023-05-09T11:03:56.088Z,74.46
2023-05-09T11:06:45.541Z,74.16
2023-05-09T11:09:37.163Z,73.69
2023-05-09T11:12:04.938Z,74.75
2023-05-09T11:14:38.380Z,74.87
2023-05-09T11:17:08.295Z,74.50
2023-05-09T11:19:48.129Z,74.40
2023-05-09T11:22:21.838Z,73.81
2023-05-09T11:24:53.959Z,73.40
2023-05-09T11:27:27.067Z,73.59
2023-05-09T11:29:58.199Z,71.50
2023-05-09T11:32:32.443Z,72.51
2023-05-09T11:35:07.566Z,71.46
2023-05-09T11:37:51.035Z,71.91
2023-05-09T11:40:21.781Z,72.00
2023-05-09T11:42:58.039Z,71.48
2023-05-09T11:45:32.566Z,71.38
2023-05-09T11:48:04.066Z,71.45
2023-05-09T11:50:32.096Z,71.18
2023-05-09T11:52:59.841Z,71.76
2023-05-09T11:55:30.307Z,71.22
2023-05-09T11:57:59.266Z,71.40
2023-05-09T12:00:27.281Z,70.90
2023-05-09T12:02:55.229Z,71.04
2023-05-09T12:05:23.789Z,70.27
2023-05-09T12:07:52.894Z,69.80
2023-05-09T12:10:23.306Z,70.05
2023-05-09T12:12:55.642Z,69.49
2023-05-09T12:15:24.470Z,68.98
2023-05-09T12:18:06.791Z,68.99
2023-05-09T12:20:51.139Z,68.58
2023-05-09T12:23:19.483Z,69.06
2023-05-09T12:25:56.381Z,67.96
2023-05-09T12:28:26.987Z,67.30
2023-05-09T12:30:55.318Z,65.58
2023-05-09T12:33:23.973Z,66.45
2023-05-09T12:36:24.625Z,65.03
2023-05-09T12:38:54.747Z,65.78
2023-05-09T12:41:36.972Z,64.72
2023-05-09T12:44:07.801Z,65.96
2023-05-09T12:46:36.882Z,64.51
2023-05-09T12:49:05.445Z,65.53
2023-05-09T12:51:33.328Z,65.69
2023-05-09T12:54:04.892Z,66.54
2023-05-09T12:56:35.271Z,67.13
2023-05-09T12:59:03.089Z,66.14
2023-05-09T13:01:31.409Z,67.09
2023-05-09T13:04:06.170Z,68.33
2023-05-09T13:06:35.835Z,70.93
2023-05-09T13:09:06.348Z,71.99
2023-05-09T13:11:35.339Z,73.15
2023-05-09T13:14:04.121Z,74.11
2023-05-09T13:16:32.415Z,73.83
2023-05-09T13:19:01.622Z,73.03
2023-05-09T13:21:29.553Z,72.99
2023-05-09T13:23:57.691Z,72.13
2023-05-09T13:26:27.267Z,70.57
2023-05-09T13:28:55.960Z,70.30
2023-05-09T13:31:24.723Z,69.74
2023-05-09T13:33:52.628Z,70.08
2023-05-09T13:36:21.028Z,69.36
2023-05-09T13:38:48.902Z,69.61
2023-05-09T13:41:20.804Z,70.21
2023-05-09T13:43:48.693Z,70.21
2023-05-09T13:46:16.559Z,69.40
2023-05-09T13:48:44.542Z,69.67
2023-05-09T13:51:12.505Z,68.17
2023-05-09T13:53:40.510Z,68.11
2023-05-09T13:56:09.627Z,67.46
2023-05-09T13:58:37.612Z,67.51
2023-05-09T14:01:05.465Z,66.86
2023-05-09T14:03:33.428Z,66.03
2023-05-09T14:06:01.340Z,66.48
2023-05-09T14:08:29.638Z,66.95
2023-05-09T14:10:57.427Z,65.50
2023-05-09T14:13:25.364Z,65.58
2023-05-09T14:15:53.298Z,65.36
2023-05-09T14:18:21.373Z,65.29
2023-05-09T14:20:49.524Z,65.70
2023-05-09T14:23:17.282Z,63.47
2023-05-09T14:25:45.257Z,63.68
2023-05-09T14:28:13.118Z,62.71
2023-05-09T14:30:42.210Z,62.78
2023-05-09T14:33:10.252Z,61.58
2023-05-09T14:35:41.069Z,62.22
2023-05-09T14:38:09.442Z,62.43
2023-05-09T14:40:37.150Z,62.81
2023-05-09T14:43:05.882Z,62.37
2023-05-09T14:45:33.800Z,62.99
2023-05-09T14:48:05.692Z,63.94
2023-05-09T14:50:33.654Z,63.56
2023-05-09T14:53:02.061Z,63.89
2023-05-09T14:55:31.222Z,64.24
2023-05-09T14:57:59.288Z,64.49
2023-05-09T15:00:28.486Z,64.81
2023-05-09T15:02:56.693Z,65.09
2023-05-09T15:05:25.060Z,65.26
2023-05-09T15:07:52.867Z,65.55
2023-05-09T15:10:20.884Z,65.87
2023-05-09T15:12:48.709Z,67.20
2023-05-09T15:15:20.562Z,68.03
2023-05-09T15:17:48.617Z,68.86
2023-05-09T15:20:20.358Z,69.55
2023-05-09T15:22:49.882Z,69.66
2023-05-09T15:25:18.042Z,68.56
2023-05-09T15:27:45.934Z,67.37
2023-05-09T15:30:15.025Z,67.15
2023-05-09T15:32:43.087Z,67.18
2023-05-09T15:35:11.278Z,67.40
2023-05-09T15:37:39.313Z,68.45
2023-05-09T15:40:08.365Z,68.57
2023-05-09T15:42:37.614Z,69.17
2023-05-09T15:45:06.586Z,69.64
2023-05-09T15:47:34.548Z,69.98
2023-05-09T15:50:02.416Z,70.38
2023-05-09T15:52:30.294Z,70.93
2023-05-09T15:54:58.359Z,71.31
2023-05-09T15:57:26.365Z,71.45
2023-05-09T15:59:57.806Z,71.77
2023-05-09T16:02:25.663Z,71.97
2023-05-09T16:04:53.502Z,72.43
2023-05-09T16:07:21.924Z,72.32
2023-05-09T16:09:49.685Z,72.16
2023-05-09T16:12:17.540Z,72.11
2023-05-09T16:14:45.472Z,71.87
2023-05-09T16:17:13.364Z,71.79
2023-05-09T16:19:41.204Z,71.62
2023-05-09T16:22:09.153Z,71.77
2023-05-09T16:24:37.640Z,71.73
2023-05-09T16:27:05.606Z,72.09
2023-05-09T16:29:33.429Z,72.48
2023-05-09T16:32:01.394Z,72.60
2023-05-09T16:34:29.392Z,72.75
2023-05-09T16:36:57.250Z,73.17
2023-05-09T16:39:27.783Z,73.49
2023-05-09T16:41:56.738Z,73.66
2023-05-09T16:44:26.022Z,73.64
2023-05-09T16:46:53.980Z,73.51
2023-05-09T16:49:22.093Z,73.89
2023-05-09T16:51:49.952Z,74.08
2023-05-09T16:54:17.841Z,74.32
2023-05-09T16:56:45.800Z,74.76
2023-05-09T16:59:13.615Z,75.08
2023-05-09T17:01:42.402Z,71.71
2023-05-09T17:04:10.270Z,72.31
2023-05-09T17:06:38.116Z,72.56
2023-05-09T17:09:06.169Z,72.47
2023-05-09T17:11:34.053Z,72.77
2023-05-09T17:14:03.507Z,73.56
2023-05-09T17:16:31.324Z,74.00
2023-05-09T17:18:59.282Z,74.36
2023-05-09T17:21:28.959Z,75.03
2023-05-09T17:23:56.969Z,74.55
2023-05-09T17:26:26.007Z,74.82
2023-05-09T17:28:54.016Z,75.06
2023-05-09T17:31:25.082Z,75.84
2023-05-09T17:33:53.031Z,75.34
2023-05-09T17:36:20.861Z,75.12
2023-05-09T17:38:49.448Z,75.30
2023-05-09T17:41:18.599Z,75.57
2023-05-09T17:43:47.580Z,76.11
2023-05-09T17:46:16.075Z,76.61
2023-05-09T17:48:44.596Z,76.99
2023-05-09T17:51:12.643Z,76.68
2023-05-09T17:53:41.301Z,76.60
2023-05-09T17:56:09.838Z,76.89
2023-05-09T17:58:37.899Z,76.88
2023-05-09T18:01:05.856Z,77.01
2023-05-09T18:03:33.854Z,77.06
2023-05-09T18:06:02.018Z,76.93
2023-05-09T18:08:30.049Z,76.66
2023-05-09T18:10:58.070Z,76.51
2023-05-09T18:13:26.046Z,77.21
2023-05-09T18:15:59.324Z,77.48
2023-05-09T18:18:35.598Z,77.37
2023-05-09T18:21:05.698Z,77.80
2023-05-09T18:23:34.290Z,78.48
2023-05-09T18:26:02.287Z,78.87
2023-05-09T18:28:30.823Z,79.18
2023-05-09T18:31:00.595Z,79.36
2023-05-09T18:33:28.850Z,79.40
2023-05-09T18:35:56.611Z,79.43
2023-05-09T18:38:24.387Z,79.69
2023-05-09T18:40:52.340Z,79.68
2023-05-09T18:43:21.630Z,80.01
2023-05-09T18:45:50.122Z,80.21
2023-05-09T18:48:19.258Z,80.47
2023-05-09T18:50:47.726Z,80.60
2023-05-09T18:53:15.598Z,80.91
2023-05-09T18:55:43.619Z,81.08
2023-05-09T18:58:12.746Z,81.50
2023-05-09T19:00:42.003Z,81.72
2023-05-09T19:03:10.687Z,81.79
2023-05-09T19:05:39.380Z,82.03
2023-05-09T19:08:08.285Z,82.04
2023-05-09T19:10:38.395Z,82.11
2023-05-09T19:13:07.332Z,82.19
2023-05-09T19:15:36.370Z,82.24
2023-05-09T19:18:05.920Z,82.31
2023-05-09T19:20:34.468Z,82.83
2023-05-09T19:23:02.536Z,83.19
2023-05-09T19:25:33.713Z,83.45
2023-05-09T19:28:01.687Z,83.61
2023-05-09T19:30:30.003Z,83.76
2023-05-09T19:32:58.355Z,83.98
2023-05-09T19:35:27.266Z,84.02
2023-05-09T19:37:55.889Z,84.21
2023-05-09T19:40:24.655Z,84.25
2023-05-09T19:42:53.495Z,84.45
2023-05-09T19:45:22.687Z,84.61
2023-05-09T19:47:51.951Z,84.68
2023-05-09T19:50:21.592Z,84.74
2023-05-09T19:52:50.541Z,84.80
2023-05-09T19:55:19.502Z,84.77
2023-05-09T19:57:49.668Z,85.01
2023-05-09T20:00:19.218Z,85.28
2023-05-09T20:02:48.248Z,85.35
2023-05-09T20:05:17.033Z,85.32
2023-05-09T20:07:45.941Z,85.36
2023-05-09T20:10:16.234Z,85.39
2023-05-09T20:12:45.888Z,85.40
2023-05-09T20:15:14.824Z,85.44
2023-05-09T20:17:43.786Z,85.42
2023-05-09T20:20:13.842Z,85.50
2023-05-09T20:22:43.269Z,85.49
2023-05-09T20:25:13.498Z,85.60
2023-05-09T20:27:42.143Z,85.60
2023-05-09T20:30:11.882Z,85.70
2023-05-09T20:32:40.091Z,85.74
2023-05-09T20:35:08.583Z,85.52
2023-05-09T20:37:37.014Z,85.52
2023-05-09T20:40:06.560Z,85.81
2023-05-09T20:42:34.369Z,85.84
2023-05-09T20:45:02.824Z,85.83
2023-05-09T20:47:30.840Z,85.83
2023-05-09T20:49:58.673Z,85.86
2023-05-09T20:52:26.707Z,85.92
2023-05-09T20:54:54.521Z,85.90
2023-05-09T20:57:22.337Z,85.97
2023-05-09T20:59:50.093Z,86.16
2023-05-09T21:02:17.873Z,86.20
2023-05-09T21:04:45.694Z,86.12
2023-05-09T21:07:13.539Z,86.07
2023-05-09T21:09:41.288Z,86.24
2023-05-09T21:12:11.043Z,86.24
2023-05-09T21:14:38.992Z,86.41
2023-05-09T21:17:06.788Z,86.51
2023-05-09T21:19:34.654Z,86.41
2023-05-09T21:22:02.880Z,86.34
2023-05-09T21:24:31.072Z,86.51
2023-05-09T21:26:58.931Z,86.50
2023-05-09T21:29:26.658Z,86.41
2023-05-09T21:31:54.496Z,86.46
2023-05-09T21:34:22.374Z,86.40
2023-05-09T21:36:50.139Z,86.46
2023-05-09T21:39:17.909Z,86.47
2023-05-09T21:41:45.890Z,86.43
2023-05-09T21:44:13.709Z,86.38
2023-05-09T21:46:43.437Z,86.38
2023-05-09T21:49:12.073Z,86.42
2023-05-09T21:51:39.834Z,86.46
2023-05-09T21:54:07.643Z,86.50
2023-05-09T21:56:35.480Z,86.60
2023-05-09T21:59:03.284Z,86.64
2023-05-09T22:01:31.093Z,86.75
2023-05-09T22:03:59.093Z,86.77
2023-05-09T22:06:27.001Z,86.72
2023-05-09T22:08:54.722Z,86.55
2023-05-09T22:11:22.482Z,86.56
2023-05-09T22:13:50.600Z,86.66
2023-05-09T22:16:18.693Z,86.73
2023-05-09T22:18:46.546Z,86.72
2023-05-09T22:21:14.313Z,86.95
2023-05-09T22:23:42.039Z,87.12
2023-05-09T22:26:09.953Z,86.97
2023-05-09T22:28:37.696Z,86.88
2023-05-09T22:31:06.994Z,86.93
2023-05-09T22:33:34.901Z,87.09
2023-05-09T22:36:02.648Z,86.90
2023-05-09T22:38:30.367Z,86.86
2023-05-09T22:40:58.326Z,86.81
2023-05-09T22:43:28.966Z,86.86
2023-05-09T22:46:04.605Z,86.97
2023-05-09T22:48:32.689Z,86.90
2023-05-09T22:51:00.468Z,86.88
2023-05-09T22:53:28.219Z,86.87
2023-05-09T22:55:55.933Z,86.92
2023-05-09T22:58:23.633Z,86.93
2023-05-09T23:00:51.495Z,86.93
2023-05-09T23:03:19.707Z,86.76
2023-05-09T23:05:47.512Z,87.07
2023-05-09T23:08:15.974Z,86.99
2023-05-09T23:10:44.144Z,86.88
2023-05-09T23:13:12.373Z,86.84
2023-05-09T23:15:40.187Z,87.00
2023-05-09T23:18:08.158Z,87.00
2023-05-09T23:20:36.975Z,87.11
2023-05-09T23:23:05.970Z,87.08
2023-05-09T23:25:33.835Z,87.14
2023-05-09T23:28:01.612Z,87.30
2023-05-09T23:30:29.365Z,87.41
2023-05-09T23:32:57.600Z,87.32
2023-05-09T23:35:26.698Z,87.28
2023-05-09T23:37:54.448Z,87.45
2023-05-09T23:40:22.402Z,87.50
2023-05-09T23:42:50.220Z,87.40
2023-05-09T23:45:18.094Z,87.47
2023-05-09T23:47:45.819Z,87.55
2023-05-09T23:50:14.168Z,87.54
2023-05-09T23:52:42.239Z,87.58
2023-05-09T23:55:10.194Z,87.55
2023-05-09T23:57:38.370Z,87.53
